Kasba-Tadla, Morocco
Current Conditions -  °F | °C
As of 9:00 AM on Saturday 29 Nov 2014 (Local Time) from GMMB Reporting Station
Broken Clouds Broken Clouds  
Wind Chill: 59°   Ceiling: 1600
Heat Index: 59°   Visibility: 6mi
Dew Point: 57°   Wind: 14mph
Humidity: 94%   Direction: 210°SSW
Pressure: 29.29"   Gusts: NA
Location:  32.61°N, 6.28°W
Report Text: GMMB 290800Z 21012KT 9999 FEW010 BKN016 15/14 Q0992 NOSIG
Loading
Personal Weather Stations






























Interactive Weather Map New forecast layout! Learn more

10-Day Weather Forecast

Advertisements
Track Severe Weather on mobile